»·PEaware :: VRD250 KSFO-KPDX

VRD250 :: KSFO-KPDX

FLIGHT INFORMATION

Flight Status: Arrived
Operator:
Virgin America
More flights by this operator :: More flights under this callsign
Pilot: Andrew Jones (13363)
Aircraft: AIRBUS A320
(A320)
More flights by this aircraft type
Origin: KSFO San Francisco Intl
United States
Destination: KPDX Portland Intl
United States
More flights between these airports :: More routes between these airports
Route: +CIITY3 GRTFL MACHU TMBRS2
File this flight plan on PilotEdge
Remarks:
Altitude:
(Current/Filed)
34,000ft
Speed:
(Current/Filed)
460kts
Departed: 07-Jan-17 09:40 PM
Arrived: 07-Jan-17 10:56 PM
Distance/Time
Traveled:
478nm/1:16
Distance/Time
To Go:
Arrived

Flight Plot

Page will automatically refresh every two minutes.


Map Options




Map Legend


Flown Route
Filed Route
Departure Airport
Arrival Airport
Navaid (VOR, NDB)
Fix

Horizontal Profiles

Position Reports

Time Latitude Longitude Heading Altitude Ground
Speed
07-Jan-17 21:26 37.616761 -122.380572 299 20ft 0kts
07-Jan-17 21:27 37.616761 -122.380572 299 20ft 0kts
07-Jan-17 21:28 37.616761 -122.380572 299 20ft 0kts
07-Jan-17 21:29 37.616761 -122.380572 299 20ft 0kts
07-Jan-17 21:30 37.616761 -122.380572 299 20ft 0kts
07-Jan-17 21:31 37.616761 -122.380572 299 20ft 0kts
07-Jan-17 21:32 37.616761 -122.380572 299 20ft 0kts
07-Jan-17 21:33 37.616340 -122.380021 5 20ft 0kts
07-Jan-17 21:34 37.615850 -122.380144 30 20ft 0kts
07-Jan-17 21:35 37.618055 -122.379603 334 20ft 25kts
07-Jan-17 21:36 37.621677 -122.386837 298 20ft 20kts
07-Jan-17 21:37 37.624263 -122.391243 297 20ft 14kts
07-Jan-17 21:38 37.625328 -122.393403 342 20ft 0kts
07-Jan-17 21:39 37.625328 -122.393403 342 20ft 0kts
07-Jan-17 21:40 37.624840 -122.389706 118 20ft 71kts
07-Jan-17 21:41 37.606309 -122.344210 117 2582ft 153kts
07-Jan-17 21:42 37.582893 -122.282371 116 3713ft 259kts
07-Jan-17 21:43 37.552776 -122.201823 118 7173ft 269kts
07-Jan-17 21:44 37.566123 -122.113950 43 10002ft 311kts
07-Jan-17 21:45 37.636228 -122.030942 42 10859ft 401kts
07-Jan-17 21:46 37.725224 -121.934214 24 13151ft 436kts
07-Jan-17 21:47 37.841045 -121.951417 334 15717ft 437kts
07-Jan-17 21:48 37.954490 -122.011700 331 17993ft 451kts
07-Jan-17 21:49 38.070855 -122.075683 330 19847ft 463kts
07-Jan-17 21:50 38.184679 -122.138459 330 21363ft 473kts
07-Jan-17 21:51 38.306299 -122.205875 329 22961ft 483kts
07-Jan-17 21:52 38.441246 -122.240605 348 24520ft 512kts
07-Jan-17 21:53 38.583350 -122.255944 348 26528ft 513kts
07-Jan-17 21:54 38.724931 -122.270980 347 28429ft 510kts
07-Jan-17 21:55 38.864586 -122.285864 347 30046ft 507kts
07-Jan-17 21:56 39.005545 -122.300941 344 31064ft 515kts
07-Jan-17 21:57 39.141638 -122.315517 343 32275ft 512kts
07-Jan-17 21:58 39.283215 -122.330774 343 33348ft 509kts
07-Jan-17 21:59 39.423311 -122.345921 342 34148ft 502kts
07-Jan-17 22:00 39.562687 -122.361140 342 34132ft 506kts
07-Jan-17 22:01 39.702387 -122.376380 342 34120ft 507kts
07-Jan-17 22:02 39.841798 -122.391663 342 34122ft 506kts
07-Jan-17 22:03 39.981307 -122.407006 342 34121ft 506kts
07-Jan-17 22:04 40.116324 -122.421924 342 34118ft 506kts
07-Jan-17 22:05 40.255635 -122.437316 342 34111ft 505kts
07-Jan-17 22:06 40.395482 -122.452907 342 34107ft 505kts
07-Jan-17 22:07 40.534818 -122.468065 342 34108ft 504kts
07-Jan-17 22:08 40.674495 -122.483047 342 34111ft 504kts
07-Jan-17 22:09 40.814295 -122.498106 342 34107ft 507kts
07-Jan-17 22:10 40.953871 -122.513204 342 34110ft 507kts
07-Jan-17 22:11 41.092804 -122.528221 340 34075ft 500kts
07-Jan-17 22:12 41.225892 -122.542725 339 34036ft 499kts
07-Jan-17 22:13 41.363612 -122.557828 339 34024ft 499kts
07-Jan-17 22:14 41.501167 -122.572943 339 34024ft 497kts
07-Jan-17 22:15 41.639733 -122.583095 341 34026ft 502kts
07-Jan-17 22:16 41.778998 -122.592202 341 34029ft 504kts
07-Jan-17 22:17 41.918136 -122.601280 341 34025ft 502kts
07-Jan-17 22:18 42.057327 -122.610456 341 34027ft 502kts
07-Jan-17 22:19 42.192958 -122.619394 341 33996ft 502kts
07-Jan-17 22:20 42.332272 -122.628683 341 33979ft 502kts
07-Jan-17 22:21 42.471409 -122.638026 341 33980ft 502kts
07-Jan-17 22:22 42.610251 -122.647373 341 33980ft 502kts
07-Jan-17 22:23 42.747621 -122.656185 340 33985ft 502kts
07-Jan-17 22:24 42.886977 -122.665612 343 33997ft 506kts
07-Jan-17 22:25 43.027891 -122.675221 341 33993ft 509kts
07-Jan-17 22:26 43.164923 -122.684548 341 33978ft 507kts
07-Jan-17 22:27 43.305684 -122.694243 341 33974ft 507kts
07-Jan-17 22:28 43.446499 -122.704034 341 33976ft 508kts
07-Jan-17 22:29 43.587507 -122.713838 341 33996ft 508kts
07-Jan-17 22:30 43.727482 -122.723645 341 34026ft 509kts
07-Jan-17 22:31 43.868547 -122.733441 341 34027ft 508kts
07-Jan-17 22:32 44.009009 -122.743184 341 34025ft 506kts
07-Jan-17 22:33 44.141755 -122.752487 342 34016ft 509kts
07-Jan-17 22:34 44.288115 -122.739462 349 34017ft 525kts
07-Jan-17 22:35 44.442102 -122.724522 352 30949ft 521kts
07-Jan-17 22:36 44.584922 -122.710046 354 24549ft 521kts
07-Jan-17 22:37 44.725956 -122.695835 354 24027ft 499kts
07-Jan-17 22:38 44.860598 -122.682256 356 20149ft 472kts
07-Jan-17 22:39 44.984363 -122.669769 358 15446ft 428kts
07-Jan-17 22:40 45.094969 -122.658418 358 12356ft 351kts
07-Jan-17 22:41 45.178049 -122.650009 357 11060ft 293kts
07-Jan-17 22:42 45.258564 -122.649256 333 10992ft 281kts
07-Jan-17 22:43 45.331304 -122.687954 332 10991ft 280kts
07-Jan-17 22:44 45.403166 -122.727122 332 10991ft 277kts
07-Jan-17 22:45 45.473822 -122.764258 332 10944ft 247kts
07-Jan-17 22:46 45.509319 -122.830429 294 9692ft 211kts
07-Jan-17 22:47 45.535444 -122.901795 294 8582ft 177kts
07-Jan-17 22:48 45.567245 -122.948011 8 7070ft 195kts
07-Jan-17 22:49 45.617212 -122.922035 14 5713ft 191kts
07-Jan-17 22:50 45.666973 -122.897746 21 4289ft 190kts
07-Jan-17 22:51 45.675955 -122.830746 120 3503ft 191kts
07-Jan-17 22:52 45.650992 -122.765823 117 2540ft 188kts
07-Jan-17 22:53 45.628759 -122.708312 118 1779ft 144kts
07-Jan-17 22:54 45.611100 -122.662368 119 669ft 129kts
07-Jan-17 22:55 45.593763 -122.617868 119 37ft 125kts
07-Jan-17 22:56 45.587901 -122.600377 75 24ft 0kts
07-Jan-17 22:57 45.589397 -122.601261 302 24ft 10kts
07-Jan-17 22:58 45.592671 -122.597988 30 24ft 18kts
07-Jan-17 22:59 45.593195 -122.596893 89 24ft 0kts
07-Jan-17 23:00 45.592737 -122.597337 217 24ft 12kts
07-Jan-17 23:01 45.591887 -122.596967 149 24ft 0kts
07-Jan-17 23:02 45.591887 -122.596967 149 24ft 0kts
07-Jan-17 23:03 45.591887 -122.596967 149 24ft 0kts

Navigation Log

Ident Type
1. KSFO Airport
2. ORYAN Fix
3. SAHEY Fix
4. CIITY Fix
5. BCEEE Fix
6. GRTFL Fix
7. MACHU Fix
8. HUBUX Fix
9. IBALL Fix
10. AARON Fix
11. MOXEE Fix
12. PORTL Fix
13. TMBRS Fix
14. VANTZ Fix
15. FLOWR Fix
16. FFULL Fix
17. SSAIL Fix
18. MYCRO Fix
19. BBREW Fix
20. PUBBB Fix
21. KPDX Airport